sensor_id;sensor_type;location;lat;lon;timestamp;P1;durP1;ratioP1;P2;durP2;ratioP2
7338;SDS011;33747;49.524;8.390;2023-08-17T00:01:19;3.08;;;2.13;;
7338;SDS011;33747;49.524;8.390;2023-08-17T00:03:44;3.15;;;2.10;;
7338;SDS011;33747;49.524;8.390;2023-08-17T00:06:10;4.07;;;2.00;;
7338;SDS011;33747;49.524;8.390;2023-08-17T00:08:35;8.20;;;2.03;;
7338;SDS011;33747;49.524;8.390;2023-08-17T00:11:01;2.97;;;2.13;;
7338;SDS011;33747;49.524;8.390;2023-08-17T00:13:26;5.22;;;2.08;;
7338;SDS011;33747;49.524;8.390;2023-08-17T00:15:51;2.15;;;1.85;;
7338;SDS011;33747;49.524;8.390;2023-08-17T00:18:17;5.95;;;1.98;;
7338;SDS011;33747;49.524;8.390;2023-08-17T00:20:42;5.30;;;2.05;;
7338;SDS011;33747;49.524;8.390;2023-08-17T00:23:09;2.92;;;2.45;;
7338;SDS011;33747;49.524;8.390;2023-08-17T00:25:34;2.58;;;2.20;;
7338;SDS011;33747;49.524;8.390;2023-08-17T00:27:59;6.70;;;3.05;;
7338;SDS011;33747;49.524;8.390;2023-08-17T00:30:25;3.47;;;2.63;;
7338;SDS011;33747;49.524;8.390;2023-08-17T00:32:50;4.43;;;3.63;;
7338;SDS011;33747;49.524;8.390;2023-08-17T00:35:16;8.65;;;3.83;;
7338;SDS011;33747;49.524;8.390;2023-08-17T00:37:41;8.68;;;3.65;;
7338;SDS011;33747;49.524;8.390;2023-08-17T00:40:06;5.78;;;3.92;;
7338;SDS011;33747;49.524;8.390;2023-08-17T00:42:32;7.03;;;3.97;;
7338;SDS011;33747;49.524;8.390;2023-08-17T00:44:57;6.50;;;4.35;;
7338;SDS011;33747;49.524;8.390;2023-08-17T00:47:23;4.13;;;3.40;;
7338;SDS011;33747;49.524;8.390;2023-08-17T00:49:49;8.95;;;3.83;;
7338;SDS011;33747;49.524;8.390;2023-08-17T00:52:15;5.35;;;3.35;;
7338;SDS011;33747;49.524;8.390;2023-08-17T00:54:40;6.28;;;3.50;;
7338;SDS011;33747;49.524;8.390;2023-08-17T00:57:07;4.20;;;3.13;;
7338;SDS011;33747;49.524;8.390;2023-08-17T00:59:33;8.27;;;3.60;;
7338;SDS011;33747;49.524;8.390;2023-08-17T01:01:59;4.82;;;3.70;;
7338;SDS011;33747;49.524;8.390;2023-08-17T01:04:24;12.77;;;3.85;;
7338;SDS011;33747;49.524;8.390;2023-08-17T01:06:50;4.57;;;3.67;;
7338;SDS011;33747;49.524;8.390;2023-08-17T01:09:15;9.57;;;3.88;;
7338;SDS011;33747;49.524;8.390;2023-08-17T01:17:29;5.75;;;3.85;;
7338;SDS011;33747;49.524;8.390;2023-08-17T01:20:03;4.35;;;3.60;;
7338;SDS011;33747;49.524;8.390;2023-08-17T01:22:30;6.15;;;3.95;;
7338;SDS011;33747;49.524;8.390;2023-08-17T01:24:55;10.23;;;5.20;;
7338;SDS011;33747;49.524;8.390;2023-08-17T01:27:24;6.63;;;4.75;;
7338;SDS011;33747;49.524;8.390;2023-08-17T01:29:50;5.57;;;3.75;;
7338;SDS011;33747;49.524;8.390;2023-08-17T01:32:18;5.68;;;4.20;;
7338;SDS011;33747;49.524;8.390;2023-08-17T01:34:59;4.15;;;3.65;;
7338;SDS011;33747;49.524;8.390;2023-08-17T01:37:29;9.95;;;4.22;;
7338;SDS011;33747;49.524;8.390;2023-08-17T01:39:56;5.07;;;4.45;;
7338;SDS011;33747;49.524;8.390;2023-08-17T01:42:23;4.95;;;4.55;;
7338;SDS011;33747;49.524;8.390;2023-08-17T01:44:48;10.07;;;4.93;;
7338;SDS011;33747;49.524;8.390;2023-08-17T01:47:14;4.88;;;4.38;;
7338;SDS011;33747;49.524;8.390;2023-08-17T01:49:39;6.63;;;4.65;;
7338;SDS011;33747;49.524;8.390;2023-08-17T01:52:05;9.15;;;4.35;;
7338;SDS011;33747;49.524;8.390;2023-08-17T01:54:30;5.97;;;4.70;;
7338;SDS011;33747;49.524;8.390;2023-08-17T01:56:55;10.38;;;5.20;;
7338;SDS011;33747;49.524;8.390;2023-08-17T01:59:21;9.15;;;5.05;;
7338;SDS011;33747;49.524;8.390;2023-08-17T02:01:46;7.65;;;5.00;;
7338;SDS011;33747;49.524;8.390;2023-08-17T02:04:12;6.00;;;5.10;;
7338;SDS011;33747;49.524;8.390;2023-08-17T02:06:37;5.20;;;4.80;;
7338;SDS011;33747;49.524;8.390;2023-08-17T02:09:02;9.80;;;4.88;;
7338;SDS011;33747;49.524;8.390;2023-08-17T02:11:28;8.55;;;4.85;;
7338;SDS011;33747;49.524;8.390;2023-08-17T02:13:53;10.20;;;4.78;;
7338;SDS011;33747;49.524;8.390;2023-08-17T02:16:18;6.95;;;4.72;;
7338;SDS011;33747;49.524;8.390;2023-08-17T02:18:44;6.95;;;5.00;;
7338;SDS011;33747;49.524;8.390;2023-08-17T02:21:09;7.45;;;5.35;;
7338;SDS011;33747;49.524;8.390;2023-08-17T02:23:35;6.85;;;5.40;;
7338;SDS011;33747;49.524;8.390;2023-08-17T02:26:00;9.07;;;5.45;;
7338;SDS011;33747;49.524;8.390;2023-08-17T02:28:25;15.43;;;5.25;;
7338;SDS011;33747;49.524;8.390;2023-08-17T02:30:57;8.52;;;5.07;;
7338;SDS011;33747;49.524;8.390;2023-08-17T02:33:23;7.07;;;5.13;;
7338;SDS011;33747;49.524;8.390;2023-08-17T02:35:49;7.63;;;5.53;;
7338;SDS011;33747;49.524;8.390;2023-08-17T02:38:15;5.65;;;5.15;;
7338;SDS011;33747;49.524;8.390;2023-08-17T02:40:40;7.13;;;5.68;;
7338;SDS011;33747;49.524;8.390;2023-08-17T02:43:05;6.65;;;5.40;;
7338;SDS011;33747;49.524;8.390;2023-08-17T02:45:31;8.90;;;5.35;;
7338;SDS011;33747;49.524;8.390;2023-08-17T02:47:56;7.15;;;6.25;;
7338;SDS011;33747;49.524;8.390;2023-08-17T02:50:21;5.78;;;4.95;;
7338;SDS011;33747;49.524;8.390;2023-08-17T02:52:47;6.60;;;4.82;;
7338;SDS011;33747;49.524;8.390;2023-08-17T02:55:12;5.28;;;4.82;;
7338;SDS011;33747;49.524;8.390;2023-08-17T02:57:38;7.00;;;5.07;;
7338;SDS011;33747;49.524;8.390;2023-08-17T03:00:03;7.20;;;5.50;;
7338;SDS011;33747;49.524;8.390;2023-08-17T03:02:29;7.63;;;4.47;;
7338;SDS011;33747;49.524;8.390;2023-08-17T03:04:54;8.77;;;4.63;;
7338;SDS011;33747;49.524;8.390;2023-08-17T03:07:19;5.85;;;4.90;;
7338;SDS011;33747;49.524;8.390;2023-08-17T03:09:45;5.72;;;4.93;;
7338;SDS011;33747;49.524;8.390;2023-08-17T03:12:10;6.18;;;4.93;;
7338;SDS011;33747;49.524;8.390;2023-08-17T03:14:36;7.72;;;5.03;;
7338;SDS011;33747;49.524;8.390;2023-08-17T03:17:01;5.30;;;4.65;;
7338;SDS011;33747;49.524;8.390;2023-08-17T03:19:26;5.18;;;4.68;;
7338;SDS011;33747;49.524;8.390;2023-08-17T03:21:52;6.50;;;4.72;;
7338;SDS011;33747;49.524;8.390;2023-08-17T03:24:17;5.68;;;4.15;;
7338;SDS011;33747;49.524;8.390;2023-08-17T03:26:42;6.05;;;4.43;;
7338;SDS011;33747;49.524;8.390;2023-08-17T03:29:08;10.35;;;5.18;;
7338;SDS011;33747;49.524;8.390;2023-08-17T03:31:34;12.05;;;4.47;;
7338;SDS011;33747;49.524;8.390;2023-08-17T03:34:00;6.13;;;4.65;;
7338;SDS011;33747;49.524;8.390;2023-08-17T03:36:26;6.13;;;4.47;;
7338;SDS011;33747;49.524;8.390;2023-08-17T03:38:51;6.55;;;3.90;;
7338;SDS011;33747;49.524;8.390;2023-08-17T03:41:16;6.75;;;3.95;;
7338;SDS011;33747;49.524;8.390;2023-08-17T03:43:42;4.07;;;3.67;;
7338;SDS011;33747;49.524;8.390;2023-08-17T03:46:07;8.57;;;4.18;;
7338;SDS011;33747;49.524;8.390;2023-08-17T03:48:33;9.13;;;4.75;;
7338;SDS011;33747;49.524;8.390;2023-08-17T03:50:58;9.40;;;5.65;;
7338;SDS011;33747;49.524;8.390;2023-08-17T03:53:23;19.65;;;6.65;;
7338;SDS011;33747;49.524;8.390;2023-08-17T03:55:49;11.90;;;8.02;;
7338;SDS011;33747;49.524;8.390;2023-08-17T03:58:15;12.95;;;8.48;;
7338;SDS011;33747;49.524;8.390;2023-08-17T04:00:41;18.00;;;10.27;;
7338;SDS011;33747;49.524;8.390;2023-08-17T04:03:07;16.17;;;10.27;;
7338;SDS011;33747;49.524;8.390;2023-08-17T04:05:32;16.90;;;11.02;;
7338;SDS011;33747;49.524;8.390;2023-08-17T04:07:58;26.15;;;12.27;;
7338;SDS011;33747;49.524;8.390;2023-08-17T04:10:27;22.33;;;11.93;;
7338;SDS011;33747;49.524;8.390;2023-08-17T04:12:52;24.27;;;14.27;;
7338;SDS011;33747;49.524;8.390;2023-08-17T04:15:18;27.50;;;15.15;;
7338;SDS011;33747;49.524;8.390;2023-08-17T04:17:43;26.33;;;15.82;;
7338;SDS011;33747;49.524;8.390;2023-08-17T04:20:09;29.65;;;15.35;;
7338;SDS011;33747;49.524;8.390;2023-08-17T04:22:34;29.15;;;16.23;;
7338;SDS011;33747;49.524;8.390;2023-08-17T04:25:00;26.98;;;15.38;;
7338;SDS011;33747;49.524;8.390;2023-08-17T04:27:25;24.73;;;13.60;;
7338;SDS011;33747;49.524;8.390;2023-08-17T04:29:51;29.65;;;15.50;;
7338;SDS011;33747;49.524;8.390;2023-08-17T04:32:16;30.92;;;15.63;;
7338;SDS011;33747;49.524;8.390;2023-08-17T04:34:42;26.27;;;15.68;;
7338;SDS011;33747;49.524;8.390;2023-08-17T04:37:08;24.60;;;16.40;;
7338;SDS011;33747;49.524;8.390;2023-08-17T04:39:33;25.73;;;15.98;;
7338;SDS011;33747;49.524;8.390;2023-08-17T04:41:59;25.45;;;16.08;;
7338;SDS011;33747;49.524;8.390;2023-08-17T04:44:24;29.00;;;16.98;;
7338;SDS011;33747;49.524;8.390;2023-08-17T04:46:49;25.20;;;16.90;;
7338;SDS011;33747;49.524;8.390;2023-08-17T04:49:15;26.02;;;17.30;;
7338;SDS011;33747;49.524;8.390;2023-08-17T04:51:40;24.88;;;16.00;;
7338;SDS011;33747;49.524;8.390;2023-08-17T04:54:06;27.38;;;17.65;;
7338;SDS011;33747;49.524;8.390;2023-08-17T04:56:31;24.00;;;15.35;;
7338;SDS011;33747;49.524;8.390;2023-08-17T04:58:56;27.02;;;17.30;;
7338;SDS011;33747;49.524;8.390;2023-08-17T05:01:22;25.00;;;17.45;;
7338;SDS011;33747;49.524;8.390;2023-08-17T05:03:47;26.63;;;17.50;;
7338;SDS011;33747;49.524;8.390;2023-08-17T05:06:13;25.52;;;17.85;;
7338;SDS011;33747;49.524;8.390;2023-08-17T05:08:38;27.45;;;17.98;;
7338;SDS011;33747;49.524;8.390;2023-08-17T05:11:04;28.45;;;19.38;;
7338;SDS011;33747;49.524;8.390;2023-08-17T05:13:29;28.35;;;17.65;;
7338;SDS011;33747;49.524;8.390;2023-08-17T05:15:54;26.52;;;17.50;;
7338;SDS011;33747;49.524;8.390;2023-08-17T05:18:20;24.70;;;15.15;;
7338;SDS011;33747;49.524;8.390;2023-08-17T05:20:45;30.95;;;16.00;;
7338;SDS011;33747;49.524;8.390;2023-08-17T05:23:10;27.00;;;17.23;;
7338;SDS011;33747;49.524;8.390;2023-08-17T05:25:36;29.17;;;17.15;;
7338;SDS011;33747;49.524;8.390;2023-08-17T05:28:01;30.38;;;18.05;;
7338;SDS011;33747;49.524;8.390;2023-08-17T05:30:27;30.20;;;17.30;;
7338;SDS011;33747;49.524;8.390;2023-08-17T05:32:52;31.63;;;17.98;;
7338;SDS011;33747;49.524;8.390;2023-08-17T05:35:17;26.92;;;16.75;;
7338;SDS011;33747;49.524;8.390;2023-08-17T05:37:43;27.25;;;16.08;;
7338;SDS011;33747;49.524;8.390;2023-08-17T05:40:08;28.08;;;16.73;;
7338;SDS011;33747;49.524;8.390;2023-08-17T05:42:34;29.48;;;17.40;;
7338;SDS011;33747;49.524;8.390;2023-08-17T05:44:59;22.65;;;15.55;;
7338;SDS011;33747;49.524;8.390;2023-08-17T05:47:24;22.27;;;15.85;;
7338;SDS011;33747;49.524;8.390;2023-08-17T05:49:50;21.88;;;15.40;;
7338;SDS011;33747;49.524;8.390;2023-08-17T05:52:15;22.25;;;15.98;;
7338;SDS011;33747;49.524;8.390;2023-08-17T05:54:41;20.38;;;15.55;;
7338;SDS011;33747;49.524;8.390;2023-08-17T05:57:07;21.80;;;15.70;;
7338;SDS011;33747;49.524;8.390;2023-08-17T05:59:32;25.80;;;17.35;;
7338;SDS011;33747;49.524;8.390;2023-08-17T06:01:58;23.23;;;16.60;;
7338;SDS011;33747;49.524;8.390;2023-08-17T06:04:23;28.83;;;18.92;;
7338;SDS011;33747;49.524;8.390;2023-08-17T06:06:49;20.73;;;16.50;;
7338;SDS011;33747;49.524;8.390;2023-08-17T06:09:14;20.77;;;16.00;;
7338;SDS011;33747;49.524;8.390;2023-08-17T06:11:40;20.98;;;16.77;;
7338;SDS011;33747;49.524;8.390;2023-08-17T06:14:06;24.55;;;18.67;;
7338;SDS011;33747;49.524;8.390;2023-08-17T06:16:31;21.30;;;17.42;;
7338;SDS011;33747;49.524;8.390;2023-08-17T06:18:57;19.63;;;17.00;;
7338;SDS011;33747;49.524;8.390;2023-08-17T06:21:22;24.80;;;15.52;;
7338;SDS011;33747;49.524;8.390;2023-08-17T06:23:47;17.02;;;14.52;;
7338;SDS011;33747;49.524;8.390;2023-08-17T06:26:13;22.48;;;15.10;;
7338;SDS011;33747;49.524;8.390;2023-08-17T06:28:38;17.90;;;14.35;;
7338;SDS011;33747;49.524;8.390;2023-08-17T06:31:03;16.15;;;14.35;;
7338;SDS011;33747;49.524;8.390;2023-08-17T06:33:29;15.38;;;13.73;;
7338;SDS011;33747;49.524;8.390;2023-08-17T06:35:54;16.05;;;13.10;;
7338;SDS011;33747;49.524;8.390;2023-08-17T06:38:20;17.83;;;14.32;;
7338;SDS011;33747;49.524;8.390;2023-08-17T06:40:45;18.02;;;15.23;;
7338;SDS011;33747;49.524;8.390;2023-08-17T06:43:11;20.00;;;14.63;;
7338;SDS011;33747;49.524;8.390;2023-08-17T06:45:36;21.58;;;15.43;;
7338;SDS011;33747;49.524;8.390;2023-08-17T06:48:02;17.88;;;13.88;;
7338;SDS011;33747;49.524;8.390;2023-08-17T06:50:27;22.45;;;14.70;;
7338;SDS011;33747;49.524;8.390;2023-08-17T06:52:53;18.60;;;12.88;;
7338;SDS011;33747;49.524;8.390;2023-08-17T06:55:19;12.75;;;11.27;;
7338;SDS011;33747;49.524;8.390;2023-08-17T06:57:44;16.42;;;13.15;;
7338;SDS011;33747;49.524;8.390;2023-08-17T07:00:10;21.23;;;14.68;;
7338;SDS011;33747;49.524;8.390;2023-08-17T07:02:36;17.00;;;13.75;;
7338;SDS011;33747;49.524;8.390;2023-08-17T07:05:02;17.65;;;14.48;;
7338;SDS011;33747;49.524;8.390;2023-08-17T07:07:28;15.90;;;14.20;;
7338;SDS011;33747;49.524;8.390;2023-08-17T07:09:55;17.92;;;13.85;;
7338;SDS011;33747;49.524;8.390;2023-08-17T07:12:20;22.20;;;15.02;;
7338;SDS011;33747;49.524;8.390;2023-08-17T07:14:45;15.18;;;13.57;;
7338;SDS011;33747;49.524;8.390;2023-08-17T07:17:11;19.38;;;14.95;;
7338;SDS011;33747;49.524;8.390;2023-08-17T07:19:36;23.35;;;15.18;;
7338;SDS011;33747;49.524;8.390;2023-08-17T07:22:02;19.27;;;14.18;;
7338;SDS011;33747;49.524;8.390;2023-08-17T07:24:27;16.85;;;13.48;;
7338;SDS011;33747;49.524;8.390;2023-08-17T07:26:52;18.02;;;14.27;;
7338;SDS011;33747;49.524;8.390;2023-08-17T07:29:18;16.85;;;14.10;;
7338;SDS011;33747;49.524;8.390;2023-08-17T07:31:43;22.15;;;14.07;;
7338;SDS011;33747;49.524;8.390;2023-08-17T07:34:09;15.30;;;13.40;;
7338;SDS011;33747;49.524;8.390;2023-08-17T07:36:35;18.98;;;15.30;;
7338;SDS011;33747;49.524;8.390;2023-08-17T07:39:00;18.27;;;14.05;;
7338;SDS011;33747;49.524;8.390;2023-08-17T07:41:26;17.73;;;14.68;;
7338;SDS011;33747;49.524;8.390;2023-08-17T07:43:51;18.60;;;14.60;;
7338;SDS011;33747;49.524;8.390;2023-08-17T07:46:16;17.40;;;12.30;;
7338;SDS011;33747;49.524;8.390;2023-08-17T07:48:42;16.52;;;12.00;;
7338;SDS011;33747;49.524;8.390;2023-08-17T07:51:07;15.13;;;11.88;;
7338;SDS011;33747;49.524;8.390;2023-08-17T07:53:32;14.50;;;10.98;;
7338;SDS011;33747;49.524;8.390;2023-08-17T07:55:58;14.52;;;11.63;;
7338;SDS011;33747;49.524;8.390;2023-08-17T07:58:23;15.00;;;11.80;;
7338;SDS011;33747;49.524;8.390;2023-08-17T08:00:49;14.00;;;11.80;;
7338;SDS011;33747;49.524;8.390;2023-08-17T08:03:14;12.43;;;10.98;;
7338;SDS011;33747;49.524;8.390;2023-08-17T08:05:40;11.80;;;10.40;;
7338;SDS011;33747;49.524;8.390;2023-08-17T08:08:05;13.07;;;10.05;;
7338;SDS011;33747;49.524;8.390;2023-08-17T08:10:31;12.85;;;11.25;;
7338;SDS011;33747;49.524;8.390;2023-08-17T08:12:56;11.60;;;10.50;;
7338;SDS011;33747;49.524;8.390;2023-08-17T08:15:22;13.63;;;11.48;;
7338;SDS011;33747;49.524;8.390;2023-08-17T08:17:47;20.92;;;12.13;;
7338;SDS011;33747;49.524;8.390;2023-08-17T08:20:13;19.42;;;11.40;;
7338;SDS011;33747;49.524;8.390;2023-08-17T08:22:38;13.82;;;10.73;;
7338;SDS011;33747;49.524;8.390;2023-08-17T08:25:04;24.25;;;10.15;;
7338;SDS011;33747;49.524;8.390;2023-08-17T08:27:29;10.60;;;9.50;;
7338;SDS011;33747;49.524;8.390;2023-08-17T08:29:54;11.15;;;9.95;;
7338;SDS011;33747;49.524;8.390;2023-08-17T08:32:20;11.80;;;9.00;;
7338;SDS011;33747;49.524;8.390;2023-08-17T08:34:45;13.23;;;9.40;;
7338;SDS011;33747;49.524;8.390;2023-08-17T08:37:10;11.85;;;8.70;;
7338;SDS011;33747;49.524;8.390;2023-08-17T08:39:52;14.63;;;9.50;;
7338;SDS011;33747;49.524;8.390;2023-08-17T08:42:18;11.20;;;9.13;;
7338;SDS011;33747;49.524;8.390;2023-08-17T08:44:44;14.15;;;9.43;;
7338;SDS011;33747;49.524;8.390;2023-08-17T08:47:10;10.07;;;9.07;;
7338;SDS011;33747;49.524;8.390;2023-08-17T08:49:39;14.25;;;10.55;;
7338;SDS011;33747;49.524;8.390;2023-08-17T08:52:08;11.35;;;7.82;;
7338;SDS011;33747;49.524;8.390;2023-08-17T08:54:38;13.68;;;7.40;;
7338;SDS011;33747;49.524;8.390;2023-08-17T08:57:04;11.10;;;8.73;;
7338;SDS011;33747;49.524;8.390;2023-08-17T08:59:31;10.60;;;8.55;;
7338;SDS011;33747;49.524;8.390;2023-08-17T09:01:58;12.77;;;8.82;;
7338;SDS011;33747;49.524;8.390;2023-08-17T09:04:24;14.75;;;8.88;;
7338;SDS011;33747;49.524;8.390;2023-08-17T09:06:50;9.93;;;7.72;;
7338;SDS011;33747;49.524;8.390;2023-08-17T09:09:16;11.18;;;8.70;;
7338;SDS011;33747;49.524;8.390;2023-08-17T09:11:42;9.35;;;7.57;;
7338;SDS011;33747;49.524;8.390;2023-08-17T09:14:07;8.55;;;7.70;;
7338;SDS011;33747;49.524;8.390;2023-08-17T09:16:33;12.60;;;7.45;;
7338;SDS011;33747;49.524;8.390;2023-08-17T09:18:58;21.70;;;8.20;;
7338;SDS011;33747;49.524;8.390;2023-08-17T09:21:24;9.18;;;7.20;;
7338;SDS011;33747;49.524;8.390;2023-08-17T09:23:58;10.07;;;7.63;;
7338;SDS011;33747;49.524;8.390;2023-08-17T09:26:24;9.13;;;8.20;;
7338;SDS011;33747;49.524;8.390;2023-08-17T09:28:52;8.35;;;7.50;;
7338;SDS011;33747;49.524;8.390;2023-08-17T09:31:23;9.55;;;8.38;;
7338;SDS011;33747;49.524;8.390;2023-08-17T09:33:49;13.27;;;8.27;;
7338;SDS011;33747;49.524;8.390;2023-08-17T09:36:15;8.65;;;7.68;;
7338;SDS011;33747;49.524;8.390;2023-08-17T09:38:47;9.35;;;7.38;;
7338;SDS011;33747;49.524;8.390;2023-08-17T09:41:14;9.68;;;7.80;;
7338;SDS011;33747;49.524;8.390;2023-08-17T09:43:39;8.85;;;6.68;;
7338;SDS011;33747;49.524;8.390;2023-08-17T09:46:05;8.82;;;7.55;;
7338;SDS011;33747;49.524;8.390;2023-08-17T09:48:32;7.47;;;5.72;;
7338;SDS011;33747;49.524;8.390;2023-08-17T09:50:57;14.65;;;7.25;;
7338;SDS011;33747;49.524;8.390;2023-08-17T09:53:24;8.00;;;7.20;;
7338;SDS011;33747;49.524;8.390;2023-08-17T09:55:50;8.07;;;6.57;;
7338;SDS011;33747;49.524;8.390;2023-08-17T09:58:15;11.10;;;6.43;;
7338;SDS011;33747;49.524;8.390;2023-08-17T10:00:45;9.27;;;6.18;;
7338;SDS011;33747;49.524;8.390;2023-08-17T10:03:11;8.52;;;5.40;;
7338;SDS011;33747;49.524;8.390;2023-08-17T10:05:39;9.60;;;7.03;;
7338;SDS011;33747;49.524;8.390;2023-08-17T10:08:06;9.52;;;7.47;;
7338;SDS011;33747;49.524;8.390;2023-08-17T10:10:32;9.35;;;7.00;;
7338;SDS011;33747;49.524;8.390;2023-08-17T10:13:03;9.40;;;5.45;;
7338;SDS011;33747;49.524;8.390;2023-08-17T10:15:36;6.85;;;5.07;;
7338;SDS011;33747;49.524;8.390;2023-08-17T10:18:15;5.72;;;5.13;;
7338;SDS011;33747;49.524;8.390;2023-08-17T10:21:00;9.45;;;5.90;;
7338;SDS011;33747;49.524;8.390;2023-08-17T10:23:27;6.28;;;5.57;;
7338;SDS011;33747;49.524;8.390;2023-08-17T10:25:53;7.03;;;6.00;;
7338;SDS011;33747;49.524;8.390;2023-08-17T10:28:19;9.52;;;5.93;;
7338;SDS011;33747;49.524;8.390;2023-08-17T10:30:45;7.03;;;5.90;;
7338;SDS011;33747;49.524;8.390;2023-08-17T10:33:10;7.40;;;4.78;;
7338;SDS011;33747;49.524;8.390;2023-08-17T10:35:36;6.88;;;6.20;;
7338;SDS011;33747;49.524;8.390;2023-08-17T10:38:03;6.72;;;4.30;;
7338;SDS011;33747;49.524;8.390;2023-08-17T10:40:34;5.90;;;5.30;;
7338;SDS011;33747;49.524;8.390;2023-08-17T10:43:00;5.78;;;5.03;;
7338;SDS011;33747;49.524;8.390;2023-08-17T10:45:26;7.20;;;5.90;;
7338;SDS011;33747;49.524;8.390;2023-08-17T10:47:59;6.97;;;5.97;;
7338;SDS011;33747;49.524;8.390;2023-08-17T10:50:25;6.70;;;5.45;;
7338;SDS011;33747;49.524;8.390;2023-08-17T10:52:53;5.25;;;4.85;;
7338;SDS011;33747;49.524;8.390;2023-08-17T10:55:34;7.70;;;5.50;;
7338;SDS011;33747;49.524;8.390;2023-08-17T10:58:00;6.35;;;5.22;;
7338;SDS011;33747;49.524;8.390;2023-08-17T11:00:26;6.82;;;5.10;;
7338;SDS011;33747;49.524;8.390;2023-08-17T11:02:59;9.93;;;5.75;;
7338;SDS011;33747;49.524;8.390;2023-08-17T11:05:45;5.68;;;5.07;;
7338;SDS011;33747;49.524;8.390;2023-08-17T11:10:59;4.50;;;4.03;;
7338;SDS011;33747;49.524;8.390;2023-08-17T11:13:29;5.97;;;4.82;;
7338;SDS011;33747;49.524;8.390;2023-08-17T11:15:57;4.75;;;4.22;;
7338;SDS011;33747;49.524;8.390;2023-08-17T11:18:23;5.43;;;3.88;;
7338;SDS011;33747;49.524;8.390;2023-08-17T11:20:48;6.53;;;4.90;;
7338;SDS011;33747;49.524;8.390;2023-08-17T11:23:14;9.88;;;4.43;;
7338;SDS011;33747;49.524;8.390;2023-08-17T11:25:41;6.13;;;4.90;;
7338;SDS011;33747;49.524;8.390;2023-08-17T11:28:07;9.20;;;5.22;;
7338;SDS011;33747;49.524;8.390;2023-08-17T11:30:36;5.75;;;4.47;;
7338;SDS011;33747;49.524;8.390;2023-08-17T11:33:04;4.65;;;4.13;;
7338;SDS011;33747;49.524;8.390;2023-08-17T11:35:29;8.38;;;4.50;;
7338;SDS011;33747;49.524;8.390;2023-08-17T11:37:55;7.82;;;3.97;;
7338;SDS011;33747;49.524;8.390;2023-08-17T11:40:20;4.93;;;3.60;;
7338;SDS011;33747;49.524;8.390;2023-08-17T11:42:46;4.15;;;3.85;;
7338;SDS011;33747;49.524;8.390;2023-08-17T11:45:12;6.90;;;3.38;;
7338;SDS011;33747;49.524;8.390;2023-08-17T11:47:41;5.95;;;3.03;;
7338;SDS011;33747;49.524;8.390;2023-08-17T11:50:09;5.28;;;3.95;;
7338;SDS011;33747;49.524;8.390;2023-08-17T11:52:35;5.68;;;4.57;;
7338;SDS011;33747;49.524;8.390;2023-08-17T11:55:06;5.57;;;4.78;;
7338;SDS011;33747;49.524;8.390;2023-08-17T11:57:33;7.18;;;4.10;;
7338;SDS011;33747;49.524;8.390;2023-08-17T11:59:59;4.00;;;3.55;;
7338;SDS011;33747;49.524;8.390;2023-08-17T12:02:26;5.00;;;3.60;;
7338;SDS011;33747;49.524;8.390;2023-08-17T12:04:52;4.03;;;3.33;;
7338;SDS011;33747;49.524;8.390;2023-08-17T12:07:18;3.80;;;3.20;;
7338;SDS011;33747;49.524;8.390;2023-08-17T12:09:44;5.05;;;3.33;;
7338;SDS011;33747;49.524;8.390;2023-08-17T12:12:10;4.18;;;3.78;;
7338;SDS011;33747;49.524;8.390;2023-08-17T12:14:36;4.68;;;3.63;;
7338;SDS011;33747;49.524;8.390;2023-08-17T12:17:01;4.40;;;4.00;;
7338;SDS011;33747;49.524;8.390;2023-08-17T12:19:27;4.13;;;3.75;;
7338;SDS011;33747;49.524;8.390;2023-08-17T12:21:54;6.95;;;4.15;;
7338;SDS011;33747;49.524;8.390;2023-08-17T12:24:19;3.85;;;3.63;;
7338;SDS011;33747;49.524;8.390;2023-08-17T12:26:45;4.10;;;3.80;;
7338;SDS011;33747;49.524;8.390;2023-08-17T12:29:14;7.32;;;4.00;;
7338;SDS011;33747;49.524;8.390;2023-08-17T12:31:39;5.25;;;3.88;;
7338;SDS011;33747;49.524;8.390;2023-08-17T12:34:05;5.38;;;4.30;;
7338;SDS011;33747;49.524;8.390;2023-08-17T12:36:34;5.05;;;3.50;;
7338;SDS011;33747;49.524;8.390;2023-08-17T12:39:00;3.83;;;3.40;;
7338;SDS011;33747;49.524;8.390;2023-08-17T12:41:26;5.43;;;3.00;;
7338;SDS011;33747;49.524;8.390;2023-08-17T12:43:51;4.45;;;3.78;;
7338;SDS011;33747;49.524;8.390;2023-08-17T12:46:18;3.38;;;2.80;;
7338;SDS011;33747;49.524;8.390;2023-08-17T12:48:44;5.55;;;3.95;;
7338;SDS011;33747;49.524;8.390;2023-08-17T12:51:09;7.22;;;4.05;;
7338;SDS011;33747;49.524;8.390;2023-08-17T12:53:35;7.07;;;3.90;;
7338;SDS011;33747;49.524;8.390;2023-08-17T12:56:00;3.88;;;3.58;;
7338;SDS011;33747;49.524;8.390;2023-08-17T12:58:25;5.03;;;3.60;;
7338;SDS011;33747;49.524;8.390;2023-08-17T13:00:51;8.40;;;3.50;;
7338;SDS011;33747;49.524;8.390;2023-08-17T13:03:19;4.88;;;3.80;;
7338;SDS011;33747;49.524;8.390;2023-08-17T13:05:44;5.88;;;3.63;;
7338;SDS011;33747;49.524;8.390;2023-08-17T13:08:09;3.97;;;3.55;;
7338;SDS011;33747;49.524;8.390;2023-08-17T13:10:35;4.45;;;3.42;;
7338;SDS011;33747;49.524;8.390;2023-08-17T13:13:01;5.72;;;4.03;;
7338;SDS011;33747;49.524;8.390;2023-08-17T13:15:26;6.78;;;3.95;;
7338;SDS011;33747;49.524;8.390;2023-08-17T13:17:52;6.30;;;4.03;;
7338;SDS011;33747;49.524;8.390;2023-08-17T13:20:17;4.43;;;3.50;;
7338;SDS011;33747;49.524;8.390;2023-08-17T13:22:43;6.82;;;3.75;;
7338;SDS011;33747;49.524;8.390;2023-08-17T13:25:08;9.18;;;3.25;;
7338;SDS011;33747;49.524;8.390;2023-08-17T13:27:33;4.15;;;3.28;;
7338;SDS011;33747;49.524;8.390;2023-08-17T13:29:59;7.78;;;3.20;;
7338;SDS011;33747;49.524;8.390;2023-08-17T13:32:25;4.93;;;3.00;;
7338;SDS011;33747;49.524;8.390;2023-08-17T13:34:50;7.45;;;3.78;;
7338;SDS011;33747;49.524;8.390;2023-08-17T13:37:16;5.05;;;3.85;;
7338;SDS011;33747;49.524;8.390;2023-08-17T13:39:42;5.85;;;4.07;;
7338;SDS011;33747;49.524;8.390;2023-08-17T13:42:08;5.35;;;3.70;;
7338;SDS011;33747;49.524;8.390;2023-08-17T13:44:33;7.15;;;3.63;;
7338;SDS011;33747;49.524;8.390;2023-08-17T13:46:59;3.90;;;3.47;;
7338;SDS011;33747;49.524;8.390;2023-08-17T13:49:24;6.07;;;3.55;;
7338;SDS011;33747;49.524;8.390;2023-08-17T13:51:49;4.75;;;3.25;;
7338;SDS011;33747;49.524;8.390;2023-08-17T13:54:15;3.65;;;3.35;;
7338;SDS011;33747;49.524;8.390;2023-08-17T13:56:40;3.08;;;2.88;;
7338;SDS011;33747;49.524;8.390;2023-08-17T13:59:05;7.18;;;3.25;;
7338;SDS011;33747;49.524;8.390;2023-08-17T14:01:31;5.28;;;3.13;;
7338;SDS011;33747;49.524;8.390;2023-08-17T14:03:56;4.22;;;3.30;;
7338;SDS011;33747;49.524;8.390;2023-08-17T14:06:22;3.25;;;2.85;;
7338;SDS011;33747;49.524;8.390;2023-08-17T14:08:47;8.70;;;3.10;;
7338;SDS011;33747;49.524;8.390;2023-08-17T14:11:12;3.17;;;2.65;;
7338;SDS011;33747;49.524;8.390;2023-08-17T14:13:38;5.35;;;3.20;;
7338;SDS011;33747;49.524;8.390;2023-08-17T14:16:04;5.40;;;2.83;;
7338;SDS011;33747;49.524;8.390;2023-08-17T14:18:29;3.47;;;2.75;;
7338;SDS011;33747;49.524;8.390;2023-08-17T14:20:55;3.15;;;2.75;;
7338;SDS011;33747;49.524;8.390;2023-08-17T14:23:20;3.15;;;2.45;;
7338;SDS011;33747;49.524;8.390;2023-08-17T14:25:45;5.13;;;2.70;;
7338;SDS011;33747;49.524;8.390;2023-08-17T14:28:11;3.63;;;2.75;;
7338;SDS011;33747;49.524;8.390;2023-08-17T14:30:36;3.58;;;3.10;;
7338;SDS011;33747;49.524;8.390;2023-08-17T14:33:02;2.92;;;2.55;;
7338;SDS011;33747;49.524;8.390;2023-08-17T14:35:27;4.00;;;2.55;;
7338;SDS011;33747;49.524;8.390;2023-08-17T14:37:53;4.45;;;2.60;;
7338;SDS011;33747;49.524;8.390;2023-08-17T14:40:22;4.00;;;2.80;;
7338;SDS011;33747;49.524;8.390;2023-08-17T14:42:48;4.10;;;2.47;;
7338;SDS011;33747;49.524;8.390;2023-08-17T14:45:13;5.47;;;2.90;;
7338;SDS011;33747;49.524;8.390;2023-08-17T14:47:38;6.07;;;3.13;;
7338;SDS011;33747;49.524;8.390;2023-08-17T14:50:04;7.78;;;3.10;;
7338;SDS011;33747;49.524;8.390;2023-08-17T14:52:29;3.92;;;3.20;;
7338;SDS011;33747;49.524;8.390;2023-08-17T14:54:55;7.43;;;3.28;;